Time;durP1;ratioP1;P1;durP2;ratioP2;P2;SDS_P1;SDS_P2;PMS_P1;PMS_P2;Temp;Humidity;BMP_temperature;BMP_pressure;BME280_temperature;BME280_humidity;BME280_pressure;Samples;Min_cycle;Max_cycle;Signal;HPM_P1;HPM_P2
2022/02/17 00:00:48;;;;;;;0.82;0.70;;;11.90;99.90;;;;;;5034879;28;20056;-74
2022/02/17 00:03:15;;;;;;;4.68;1.33;;;10.90;99.90;;;;;;5045741;28;20041;-80
2022/02/17 00:05:42;;;;;;;3.75;0.73;;;9.90;99.90;;;;;;5034907;28;20044;-78
2022/02/17 00:08:09;;;;;;;3.95;0.60;;;9.50;99.90;;;;;;5017831;28;20044;-74
2022/02/17 00:10:36;;;;;;;4.07;1.10;;;9.40;99.90;;;;;;5038293;28;20056;-78
2022/02/17 00:13:04;;;;;;;5.22;1.27;;;9.30;99.90;;;;;;5001455;28;20110;-76
2022/02/17 00:15:33;;;;;;;3.35;1.30;;;9.40;99.90;;;;;;5023725;28;20512;-78
2022/02/17 00:18:09;;;;;;;3.42;1.10;;;9.70;99.90;;;;;;4999534;28;20046;-75
2022/02/17 00:20:36;;;;;;;5.22;1.48;;;10.20;99.90;;;;;;5024882;28;20041;-75
2022/02/17 00:23:03;;;;;;;4.70;1.30;;;10.50;99.90;;;;;;5031893;28;20138;-75
2022/02/17 00:25:30;;;;;;;6.40;1.50;;;10.60;99.90;;;;;;5012507;28;20052;-76
2022/02/17 00:27:57;;;;;;;3.92;1.95;;;10.70;99.90;;;;;;5012708;28;20581;-75
2022/02/17 00:30:25;;;;;;;2.67;1.77;;;10.90;99.90;;;;;;4997312;28;20122;-76
2022/02/17 00:32:52;;;;;;;4.40;1.75;;;11.00;99.90;;;;;;5033069;28;20110;-79
2022/02/17 00:35:19;;;;;;;3.75;1.77;;;10.90;99.90;;;;;;5004906;28;20080;-76
2022/02/17 00:37:48;;;;;;;8.07;2.17;;;10.70;99.90;;;;;;5010762;28;20436;-75
2022/02/17 00:40:15;;;;;;;8.35;1.75;;;10.00;99.90;;;;;;5015648;28;20135;-76
2022/02/17 00:42:42;;;;;;;7.13;1.92;;;9.30;99.90;;;;;;5016057;28;20049;-76
2022/02/17 00:45:11;;;;;;;10.88;2.40;;;9.00;99.90;;;;;;4999321;28;20048;-76
2022/02/17 00:47:38;;;;;;;7.35;1.95;;;8.70;99.90;;;;;;5016663;28;20048;-79
2022/02/17 00:50:06;;;;;;;5.82;2.05;;;8.60;99.90;;;;;;5017098;28;20064;-78
2022/02/17 00:52:32;;;;;;;5.03;1.38;;;8.70;99.90;;;;;;5016975;28;20049;-79
2022/02/17 00:55:02;;;;;;;3.10;2.08;;;8.60;99.90;;;;;;5009004;28;20429;-77
2022/02/17 00:57:28;;;;;;;6.50;1.98;;;8.80;99.90;;;;;;5022439;28;20049;-77
2022/02/17 00:59:55;;;;;;;6.60;2.13;;;8.80;99.90;;;;;;5033220;28;20067;-78
2022/02/17 01:02:22;;;;;;;7.85;1.90;;;8.90;99.90;;;;;;5039257;28;20083;-77
2022/02/17 01:04:49;;;;;;;7.65;2.28;;;8.90;99.90;;;;;;5032091;28;20076;-77
2022/02/17 01:07:16;;;;;;;8.48;2.40;;;8.90;99.90;;;;;;5017390;28;20044;-76
2022/02/17 01:09:43;;;;;;;7.03;2.33;;;8.90;99.90;;;;;;4998072;28;20412;-77
2022/02/17 01:12:10;;;;;;;4.15;1.75;;;8.90;99.90;;;;;;5000470;28;20045;-77
2022/02/17 01:14:37;;;;;;;4.70;2.22;;;8.90;99.90;;;;;;5016349;28;20049;-78
2022/02/17 01:17:04;;;;;;;5.00;1.50;;;8.90;99.90;;;;;;5034778;28;20121;-76
2022/02/17 01:19:33;;;;;;;4.70;1.60;;;9.00;99.90;;;;;;5017683;28;20056;-79
2022/02/17 01:22:00;;;;;;;6.32;1.50;;;9.00;99.90;;;;;;5017566;28;20045;-78
2022/02/17 01:24:28;;;;;;;8.77;1.50;;;9.00;99.90;;;;;;5001685;28;20106;-78
2022/02/17 01:26:57;;;;;;;7.55;1.83;;;9.00;99.90;;;;;;5005728;28;20056;-77
2022/02/17 01:29:23;;;;;;;7.03;2.35;;;9.00;99.90;;;;;;5002773;28;20108;-76
2022/02/17 01:31:52;;;;;;;5.53;1.65;;;8.90;99.90;;;;;;5035682;28;20552;-76
2022/02/17 01:34:21;;;;;;;6.95;1.83;;;8.90;99.90;;;;;;5035868;28;20401;-77
2022/02/17 01:36:59;;;;;;;4.38;2.08;;;8.80;99.90;;;;;;5019688;28;20053;-79
2022/02/17 01:39:29;;;;;;;6.57;1.80;;;8.80;99.90;;;;;;4999238;28;20057;-76
2022/02/17 01:41:56;;;;;;;7.00;2.55;;;8.90;99.90;;;;;;4998534;28;20052;-76
2022/02/17 01:44:25;;;;;;;9.43;2.05;;;8.90;99.90;;;;;;5000668;28;20059;-75
2022/02/17 01:47:08;;;;;;;6.10;1.63;;;8.90;99.90;;;;;;5012919;28;20399;-77
2022/02/17 01:49:39;;;;;;;10.98;2.60;;;8.90;99.90;;;;;;5003277;28;20053;-78
2022/02/17 01:52:08;;;;;;;9.70;2.92;;;8.90;99.90;;;;;;5003964;28;20124;-77
2022/02/17 01:54:39;;;;;;;5.68;2.25;;;8.90;99.90;;;;;;5030251;28;20059;-76
2022/02/17 01:57:14;;;;;;;6.45;2.45;;;8.80;99.90;;;;;;5008068;28;20084;-75
2022/02/17 01:59:47;;;;;;;6.72;3.80;;;8.90;99.90;;;;;;5009773;28;20107;-77
2022/02/17 02:02:22;;;;;;;5.78;2.70;;;8.90;99.90;;;;;;5036113;28;20135;-76
2022/02/17 02:04:56;;;;;;;;;;;9.10;99.90;;;;;;5038517;28;20256;-79
2022/02/17 02:07:23;;;;;;;8.57;2.60;;;9.20;99.90;;;;;;5009956;28;19948;-75
2022/02/17 02:09:53;;;;;;;6.38;1.52;;;9.20;99.90;;;;;;5014269;28;20040;-75
2022/02/17 02:12:30;;;;;;;6.85;2.80;;;9.20;99.90;;;;;;5019661;28;20126;-76
2022/02/17 02:14:58;;;;;;;6.25;1.50;;;9.20;99.90;;;;;;5003667;28;20049;-77
2022/02/17 02:17:29;;;;;;;4.18;1.52;;;9.20;99.90;;;;;;5018212;28;20055;-76
2022/02/17 02:19:59;;;;;;;5.32;2.08;;;9.20;99.90;;;;;;5019626;28;20079;-76
2022/02/17 02:22:30;;;;;;;11.65;1.73;;;9.10;99.90;;;;;;5016388;28;20170;-73
2022/02/17 02:25:00;;;;;;;8.55;1.83;;;9.00;99.90;;;;;;5016936;28;20492;-77
2022/02/17 02:27:28;;;;;;;10.35;2.30;;;9.00;99.90;;;;;;4997677;28;20037;-74
2022/02/17 02:29:58;;;;;;;7.35;2.97;;;9.00;99.90;;;;;;5001128;28;20048;-77
2022/02/17 02:32:35;;;;;;;5.45;2.08;;;9.00;99.90;;;;;;5015975;28;20049;-78
2022/02/17 02:35:03;;;;;;;8.98;2.22;;;8.90;99.90;;;;;;4997480;28;20119;-75
2022/02/17 02:37:30;;;;;;;11.23;2.58;;;8.80;99.90;;;;;;5007932;28;20041;-74
2022/02/17 02:39:57;;;;;;;6.38;1.98;;;8.80;99.90;;;;;;4999645;28;20258;-78
2022/02/17 02:42:25;;;;;;;13.68;2.55;;;8.80;99.90;;;;;;4996780;28;20505;-75
2022/02/17 02:44:52;;;;;;;8.43;1.70;;;8.70;99.90;;;;;;5001766;28;20048;-73
2022/02/17 02:47:20;;;;;;;8.85;1.58;;;8.60;99.90;;;;;;5010817;28;20041;-75
2022/02/17 02:49:48;;;;;;;7.40;1.90;;;8.50;99.90;;;;;;5008319;28;20049;-75
2022/02/17 02:52:17;;;;;;;7.82;1.40;;;8.40;99.90;;;;;;5015546;28;20099;-75
2022/02/17 02:54:46;;;;;;;12.98;2.38;;;8.40;99.90;;;;;;5014229;28;20144;-74
2022/02/17 02:57:13;;;;;;;6.03;1.73;;;8.40;99.90;;;;;;5015547;28;20061;-74
2022/02/17 02:59:42;;;;;;;5.28;1.92;;;8.50;99.90;;;;;;5019345;28;20218;-77
2022/02/17 03:02:17;;;;;;;5.72;1.35;;;8.40;99.90;;;;;;5035504;28;20044;-78
2022/02/17 03:04:44;;;;;;;3.33;1.58;;;8.10;99.90;;;;;;5034074;28;20131;-77
2022/02/17 03:07:16;;;;;;;7.07;1.60;;;7.90;99.90;;;;;;5020853;28;20064;-76
2022/02/17 03:09:44;;;;;;;6.22;2.00;;;8.00;99.90;;;;;;4994486;28;20130;-76
2022/02/17 03:12:15;;;;;;;3.00;2.00;;;7.80;99.90;;;;;;5014857;28;20124;-75
2022/02/17 03:14:43;;;;;;;6.25;1.85;;;7.70;99.90;;;;;;5016401;28;20049;-73
2022/02/17 03:17:17;;;;;;;11.02;1.80;;;7.60;99.90;;;;;;4988725;28;20040;-75
2022/02/17 03:19:43;;;;;;;7.85;2.53;;;7.50;99.90;;;;;;5011521;28;20694;-75
2022/02/17 03:22:12;;;;;;;7.47;2.00;;;7.50;99.90;;;;;;5013774;28;20106;-78
2022/02/17 03:24:40;;;;;;;7.40;1.70;;;7.50;99.90;;;;;;5017053;28;20049;-75
2022/02/17 03:27:08;;;;;;;10.35;2.88;;;7.50;99.90;;;;;;4997108;28;20048;-77
2022/02/17 03:29:35;;;;;;;12.02;3.13;;;7.60;99.90;;;;;;5003537;28;20131;-72
2022/02/17 03:32:05;;;;;;;9.88;3.42;;;7.70;99.90;;;;;;5030108;28;20045;-77
2022/02/17 03:34:33;;;;;;;9.98;2.75;;;7.90;99.90;;;;;;5033096;28;20397;-76
2022/02/17 03:37:00;;;;;;;18.35;4.53;;;7.90;99.90;;;;;;5031633;28;20168;-75
2022/02/17 03:39:28;;;;;;;17.65;5.78;;;8.10;99.90;;;;;;5014923;28;20044;-77
2022/02/17 03:42:06;;;;;;;10.65;4.10;;;8.20;99.90;;;;;;4992662;28;20126;-77
2022/02/17 03:44:33;;;;;;;12.43;5.30;;;8.30;99.90;;;;;;5015974;28;20036;-75
2022/02/17 03:47:23;;;;;;;14.88;5.00;;;8.30;99.90;;;;;;5016614;28;20033;-76
2022/02/17 03:49:56;;;;;;;17.88;4.68;;;8.20;99.90;;;;;;5015482;28;20144;-75
2022/02/17 03:52:28;;;;;;;17.13;4.20;;;8.30;99.90;;;;;;4980292;28;20052;-77
2022/02/17 03:55:16;;;;;;;12.07;4.05;;;8.40;99.90;;;;;;4995061;28;20054;-77
2022/02/17 03:57:45;;;;;;;23.70;4.38;;;8.40;99.90;;;;;;4994938;28;20059;-78
2022/02/17 04:00:15;;;;;;;14.82;4.03;;;8.30;99.90;;;;;;5028090;28;20543;-77
2022/02/17 04:02:45;;;;;;;10.80;7.07;;;8.40;99.90;;;;;;5028057;28;20055;-75
2022/02/17 04:05:16;;;;;;;16.58;6.57;;;8.50;99.90;;;;;;4989412;28;20075;-77
2022/02/17 04:07:43;;;;;;;9.98;6.35;;;8.40;99.90;;;;;;4994834;28;20083;-75
2022/02/17 04:10:21;;;;;;;16.00;7.43;;;8.30;99.90;;;;;;5009078;28;20087;-75
2022/02/17 04:12:48;;;;;;;11.77;5.45;;;7.90;99.90;;;;;;5023160;28;20053;-76
2022/02/17 04:15:15;;;;;;;16.05;4.55;;;7.60;99.90;;;;;;5025466;28;20045;-78
2022/02/17 04:17:42;;;;;;;13.63;3.45;;;7.30;99.90;;;;;;4999089;28;20078;-78
2022/02/17 04:20:21;;;;;;;9.80;3.53;;;6.90;99.90;;;;;;5002452;28;20053;-80
2022/02/17 04:23:14;;;;;;;5.85;3.13;;;6.60;99.90;;;;;;5000716;28;20144;-78
2022/02/17 04:25:44;;;;;;;7.63;4.80;;;6.50;99.90;;;;;;5011378;28;20042;-77
2022/02/17 04:28:33;;;;;;;10.85;5.28;;;6.30;99.90;;;;;;5006629;28;20472;-78
2022/02/17 04:30:59;;;;;;;6.93;4.53;;;6.30;99.90;;;;;;5000063;28;20077;-77
2022/02/17 04:33:29;;;;;;;8.85;5.30;;;6.50;99.90;;;;;;4997283;28;20041;-78
2022/02/17 04:36:04;;;;;;;;;;;6.50;99.90;;;;;;4983238;28;20548;-77
2022/02/17 04:38:36;;;;;;;10.40;4.15;;;6.40;99.90;;;;;;5004674;28;20488;-75
2022/02/17 04:43:48;;;;;;;6.40;2.97;;;6.10;99.90;;;;;;5022919;28;20048;-76
2022/02/17 04:46:15;;;;;;;10.93;2.38;;;5.90;99.90;;;;;;5034873;28;20044;-75
2022/02/17 04:48:42;;;;;;;10.32;2.22;;;5.80;99.90;;;;;;5033941;28;20061;-77
2022/02/17 04:51:13;;;;;;;11.23;2.30;;;5.80;99.90;;;;;;5017586;28;20937;-77
2022/02/17 04:53:40;;;;;;;8.38;1.70;;;5.90;99.90;;;;;;5004149;28;20049;-79
2022/02/17 04:56:07;;;;;;;9.18;2.05;;;5.90;99.90;;;;;;4997011;28;20482;-77
2022/02/17 04:58:38;;;;;;;9.38;2.03;;;5.90;99.90;;;;;;4996387;28;20076;-76
2022/02/17 05:01:06;;;;;;;16.38;2.70;;;6.00;99.90;;;;;;4993745;28;20141;-76
2022/02/17 05:04:04;;;;;;;13.90;2.63;;;6.10;99.90;;;;;;4993897;28;20131;-76
2022/02/17 05:06:38;;;;;;;15.38;3.45;;;6.30;99.90;;;;;;4996923;28;20096;-79
2022/02/17 05:09:05;;;;;;;12.88;4.30;;;6.60;99.90;;;;;;5009486;28;20045;-78
2022/02/17 05:11:34;;;;;;;6.05;4.05;;;6.50;99.90;;;;;;5014529;28;20057;-75
2022/02/17 05:14:01;;;;;;;9.27;4.60;;;6.10;99.90;;;;;;5014324;28;20140;-78
2022/02/17 05:16:28;;;;;;;8.68;2.80;;;6.00;99.90;;;;;;5011070;28;20261;-76
2022/02/17 05:18:55;;;;;;;12.38;2.45;;;5.70;99.90;;;;;;5015026;28;20710;-76
2022/02/17 05:21:40;;;;;;;16.17;2.40;;;5.40;99.90;;;;;;5022475;28;20452;-77
2022/02/17 05:24:26;;;;;;;11.82;2.92;;;5.30;99.90;;;;;;5030940;28;20057;-76
2022/02/17 05:27:10;;;;;;;9.37;3.37;;;5.40;99.90;;;;;;5006191;28;20049;-77
2022/02/17 05:29:43;;;;;;;17.05;3.45;;;5.20;99.90;;;;;;5000081;28;20053;-77
2022/02/17 05:32:27;;;;;;;21.65;3.22;;;5.30;99.90;;;;;;4984729;28;20699;-76
2022/02/17 05:35:17;;;;;;;12.80;3.33;;;5.50;99.90;;;;;;5026524;28;20563;-75
2022/02/17 05:37:56;;;;;;;19.67;4.40;;;5.60;99.90;;;;;;5016705;28;20049;-75
2022/02/17 05:40:37;;;;;;;15.15;3.92;;;5.90;99.90;;;;;;5016173;28;20574;-75
2022/02/17 05:43:05;;;;;;;21.38;6.00;;;6.00;99.90;;;;;;5009933;28;20045;-75
2022/02/17 05:45:33;;;;;;;26.63;5.63;;;6.20;99.90;;;;;;5009135;28;20053;-75
2022/02/17 05:48:00;;;;;;;18.60;5.95;;;6.40;99.90;;;;;;5026035;28;20057;-76
2022/02/17 05:50:27;;;;;;;21.55;7.78;;;6.60;99.90;;;;;;5017451;28;20052;-77
2022/02/17 05:53:01;;;;;;;19.63;7.05;;;6.70;99.90;;;;;;5018139;28;20048;-76
2022/02/17 05:55:29;;;;;;;19.13;8.85;;;6.70;99.90;;;;;;5024879;28;20049;-75
2022/02/17 05:57:56;;;;;;;21.50;8.10;;;6.80;99.90;;;;;;4998341;28;20034;-76
2022/02/17 06:00:24;;;;;;;11.40;7.10;;;6.90;99.90;;;;;;5037476;28;20517;-74
2022/02/17 06:02:51;;;;;;;16.13;7.60;;;6.90;99.90;;;;;;5032454;28;20053;-75
2022/02/17 06:05:18;;;;;;;18.80;7.55;;;6.90;99.90;;;;;;4999198;28;20067;-76
2022/02/17 06:07:45;;;;;;;13.40;7.38;;;6.90;99.90;;;;;;5019259;28;20060;-75
2022/02/17 06:10:12;;;;;;;13.57;7.82;;;6.80;99.90;;;;;;5033898;28;20072;-76
2022/02/17 06:12:44;;;;;;;21.17;7.85;;;6.80;99.90;;;;;;5052672;28;20452;-75
2022/02/17 06:15:13;;;;;;;15.32;6.20;;;6.80;99.90;;;;;;5018312;28;20052;-80
2022/02/17 06:17:40;;;;;;;13.05;6.75;;;6.90;99.90;;;;;;5017083;28;20053;-74
2022/02/17 06:20:08;;;;;;;16.58;4.57;;;6.80;99.90;;;;;;5018057;28;20131;-76
2022/02/17 06:22:48;;;;;;;13.63;4.10;;;6.70;99.90;;;;;;5017430;28;20048;-75
2022/02/17 06:25:18;;;;;;;18.88;4.20;;;6.60;99.90;;;;;;5034619;28;20045;-76
2022/02/17 06:27:49;;;;;;;12.57;4.03;;;6.60;99.90;;;;;;5019469;28;20067;-75
2022/02/17 06:30:17;;;;;;;10.98;4.88;;;6.50;99.90;;;;;;5001261;28;20045;-74
2022/02/17 06:33:02;;;;;;;9.55;5.05;;;6.40;99.90;;;;;;5019660;28;20059;-77
2022/02/17 06:35:33;;;;;;;8.70;6.10;;;6.30;99.90;;;;;;5036101;28;20055;-72
2022/02/17 06:38:01;;;;;;;8.85;6.00;;;6.20;99.90;;;;;;5017127;28;20087;-77
2022/02/17 06:40:28;;;;;;;10.35;5.45;;;6.30;99.90;;;;;;5014934;28;20399;-76
2022/02/17 06:42:55;;;;;;;11.20;4.95;;;6.30;99.90;;;;;;5027995;28;20249;-76
2022/02/17 06:45:26;;;;;;;17.25;6.68;;;6.30;99.90;;;;;;5010535;28;20124;-76
2022/02/17 06:47:54;;;;;;;16.98;5.65;;;6.30;99.90;;;;;;5017308;28;20049;-76
2022/02/17 06:50:22;;;;;;;9.15;4.93;;;6.30;99.90;;;;;;5016738;28;20049;-75
2022/02/17 06:52:49;;;;;;;16.13;6.38;;;6.40;99.90;;;;;;5015220;28;20053;-77
2022/02/17 06:55:16;;;;;;;11.15;5.15;;;6.60;99.90;;;;;;5018417;28;20045;-75
2022/02/17 06:57:43;;;;;;;15.68;6.45;;;6.60;99.90;;;;;;5003496;28;20666;-76
2022/02/17 07:00:10;;;;;;;19.38;8.73;;;6.70;99.90;;;;;;4998319;28;20066;-77
2022/02/17 07:02:50;;;;;;;17.50;9.45;;;6.90;99.90;;;;;;5005135;28;20040;-73
2022/02/17 07:05:16;;;;;;;27.60;10.05;;;7.00;99.90;;;;;;4995430;28;20633;-78
2022/02/17 07:07:43;;;;;;;16.10;7.50;;;7.00;99.90;;;;;;4997007;28;20054;-78
2022/02/17 07:10:10;;;;;;;20.00;8.07;;;7.00;99.90;;;;;;5011864;28;20038;-77
2022/02/17 07:12:43;;;;;;;15.02;6.47;;;7.00;99.90;;;;;;5031757;28;20047;-75
2022/02/17 07:15:11;;;;;;;27.70;7.50;;;7.00;99.90;;;;;;5033713;28;20063;-76
2022/02/17 07:17:38;;;;;;;21.27;7.82;;;7.00;99.90;;;;;;5033362;28;20582;-75
2022/02/17 07:20:05;;;;;;;28.85;8.32;;;7.10;99.90;;;;;;5016299;28;20060;-76
2022/02/17 07:22:32;;;;;;;19.40;7.75;;;7.10;99.90;;;;;;4999042;28;20043;-75
2022/02/17 07:24:59;;;;;;;14.30;7.80;;;7.10;99.90;;;;;;4999124;28;20099;-76
2022/02/17 07:27:26;;;;;;;14.23;8.35;;;7.00;99.90;;;;;;5000728;28;20055;-75
2022/02/17 07:29:53;;;;;;;16.67;8.65;;;6.90;99.90;;;;;;5001116;28;20044;-77
2022/02/17 07:32:20;;;;;;;14.65;8.38;;;6.70;99.90;;;;;;5017149;28;20509;-75
2022/02/17 07:34:52;;;;;;;11.48;10.10;;;6.60;99.90;;;;;;5004456;28;20041;-74
2022/02/17 07:37:19;;;;;;;22.17;11.43;;;6.50;99.90;;;;;;4993110;28;20080;-76
2022/02/17 07:39:47;;;;;;;12.25;11.10;;;6.40;99.90;;;;;;4995696;28;20063;-76
2022/02/17 07:42:15;;;;;;;13.32;11.52;;;6.40;99.90;;;;;;5028190;28;20198;-77
2022/02/17 07:44:43;;;;;;;12.38;11.57;;;6.40;99.90;;;;;;4995894;28;20541;-75
2022/02/17 07:47:09;;;;;;;11.95;10.90;;;6.40;99.90;;;;;;4999454;28;20051;-75
2022/02/17 07:49:36;;;;;;;12.15;11.02;;;6.40;99.90;;;;;;5014287;28;20052;-72
2022/02/17 07:52:03;;;;;;;11.63;10.40;;;6.30;99.90;;;;;;5027758;28;20041;-73
2022/02/17 07:54:30;;;;;;;13.70;10.85;;;6.30;99.90;;;;;;5001535;28;20498;-75
2022/02/17 07:57:00;;;;;;;11.77;9.65;;;6.30;99.90;;;;;;4995086;28;20442;-75
2022/02/17 07:59:26;;;;;;;10.20;9.40;;;6.30;99.90;;;;;;5027453;28;20608;-77
2022/02/17 08:01:55;;;;;;;10.38;8.77;;;6.30;99.90;;;;;;5013119;28;20131;-76
2022/02/17 08:04:21;;;;;;;8.82;7.93;;;6.30;99.90;;;;;;5012208;28;20111;-75
2022/02/17 08:06:48;;;;;;;20.65;9.25;;;6.30;99.90;;;;;;5012398;28;20056;-76
2022/02/17 08:09:17;;;;;;;9.70;8.30;;;6.30;99.90;;;;;;5024037;28;20135;-76
2022/02/17 08:11:44;;;;;;;8.52;7.70;;;6.30;99.90;;;;;;5027574;28;20045;-76
2022/02/17 08:14:10;;;;;;;7.78;6.95;;;6.20;99.90;;;;;;5026652;28;20041;-77
2022/02/17 08:16:37;;;;;;;13.13;6.13;;;6.20;99.90;;;;;;5012323;28;20045;-77
2022/02/17 08:19:11;;;;;;;18.15;5.95;;;6.20;99.90;;;;;;4994260;28;20146;-76
2022/02/17 08:21:43;;;;;;;12.52;5.90;;;6.20;99.90;;;;;;5013804;28;20045;-76
2022/02/17 08:24:11;;;;;;;9.75;5.78;;;6.20;99.90;;;;;;5000276;28;20041;-77
2022/02/17 08:26:39;;;;;;;13.43;7.85;;;6.20;99.90;;;;;;5011329;28;20453;-76
2022/02/17 08:29:06;;;;;;;10.98;6.63;;;6.20;99.90;;;;;;5027674;28;20049;-75
2022/02/17 08:31:34;;;;;;;26.23;7.18;;;6.30;99.90;;;;;;5009770;28;20056;-76
2022/02/17 08:34:03;;;;;;;17.40;7.28;;;6.30;99.90;;;;;;5010267;28;20041;-75
2022/02/17 08:36:31;;;;;;;18.90;6.95;;;6.40;99.90;;;;;;5009730;28;20132;-76
2022/02/17 08:38:58;;;;;;;14.05;6.13;;;6.40;99.90;;;;;;5022409;28;20045;-76
2022/02/17 08:41:25;;;;;;;9.20;7.35;;;6.40;99.90;;;;;;5027446;28;20048;-75
2022/02/17 08:43:52;;;;;;;9.45;6.85;;;6.50;99.90;;;;;;5041394;28;20618;-77
2022/02/17 08:46:20;;;;;;;16.77;8.00;;;6.50;99.90;;;;;;5005662;28;20050;-76
2022/02/17 08:48:47;;;;;;;15.68;7.32;;;6.50;99.90;;;;;;5029070;28;20041;-76
2022/02/17 08:51:17;;;;;;;17.50;7.47;;;6.50;99.90;;;;;;5013689;28;20037;-74
2022/02/17 08:53:44;;;;;;;17.88;8.27;;;6.50;99.90;;;;;;5017931;28;20071;-77
2022/02/17 08:56:11;;;;;;;16.30;7.28;;;6.50;99.90;;;;;;5012107;28;20049;-76
2022/02/17 08:58:41;;;;;;;10.77;5.68;;;6.50;99.90;;;;;;5012365;28;20053;-78
2022/02/17 09:01:08;;;;;;;11.35;6.57;;;6.50;99.90;;;;;;5030172;28;20137;-75
2022/02/17 09:03:36;;;;;;;15.13;7.57;;;6.50;99.90;;;;;;5031325;28;20467;-76
2022/02/17 09:06:02;;;;;;;14.20;6.30;;;6.50;99.90;;;;;;5006277;28;20556;-76
2022/02/17 09:08:43;;;;;;;14.95;6.63;;;6.60;99.90;;;;;;5001648;28;20049;-76
2022/02/17 09:11:12;;;;;;;15.50;7.38;;;6.70;99.90;;;;;;5025761;28;20141;-78
2022/02/17 09:13:38;;;;;;;14.02;6.93;;;6.60;99.90;;;;;;5028650;28;20045;-73
2022/02/17 09:16:05;;;;;;;10.00;8.70;;;6.70;99.90;;;;;;5022923;28;20045;-75
2022/02/17 09:18:33;;;;;;;9.20;6.45;;;6.80;99.90;;;;;;4976833;28;20037;-78
2022/02/17 09:20:59;;;;;;;8.80;7.05;;;6.80;99.90;;;;;;5007464;28;20049;-76
2022/02/17 09:23:26;;;;;;;18.77;7.60;;;6.80;99.90;;;;;;5013081;28;20056;-76
2022/02/17 09:25:53;;;;;;;17.02;9.10;;;6.90;99.90;;;;;;5028071;28;20649;-76
2022/02/17 09:28:20;;;;;;;11.85;8.30;;;6.90;99.90;;;;;;4993513;28;20045;-75
2022/02/17 09:30:48;;;;;;;13.82;8.73;;;6.90;99.90;;;;;;4993464;28;20049;-77
2022/02/17 09:33:15;;;;;;;15.63;8.18;;;6.90;99.90;;;;;;4993290;28;20091;-75
2022/02/17 09:35:43;;;;;;;13.10;7.45;;;6.90;99.90;;;;;;5011386;28;20571;-77
2022/02/17 09:38:13;;;;;;;12.82;8.07;;;6.90;99.90;;;;;;4996944;28;20065;-76
2022/02/17 09:40:42;;;;;;;10.57;9.75;;;7.00;99.90;;;;;;5008858;28;20056;-75
2022/02/17 09:43:10;;;;;;;19.48;9.00;;;7.10;99.90;;;;;;5041711;28;20652;-77
2022/02/17 09:45:43;;;;;;;11.43;7.57;;;7.30;99.90;;;;;;4993832;28;20509;-74
2022/02/17 09:48:15;;;;;;;10.77;7.13;;;7.20;99.90;;;;;;4993941;28;20139;-73
2022/02/17 09:50:46;;;;;;;8.80;8.05;;;7.00;99.90;;;;;;4999451;28;20088;-76
2022/02/17 09:53:13;;;;;;;14.88;6.88;;;6.90;99.90;;;;;;5027687;28;20772;-76
2022/02/17 09:55:40;;;;;;;10.88;7.75;;;6.70;99.90;;;;;;5010700;28;20075;-76
2022/02/17 09:58:07;;;;;;;9.65;8.85;;;6.70;99.90;;;;;;5030600;28;20057;-77
2022/02/17 10:00:34;;;;;;;13.90;6.72;;;6.70;99.90;;;;;;5012398;28;20052;-76
2022/02/17 10:03:25;;;;;;;13.27;6.50;;;6.80;99.90;;;;;;4997031;28;20122;-77
2022/02/17 10:06:16;;;;;;;17.00;7.57;;;6.70;99.90;;;;;;5033317;28;20106;-76
2022/02/17 10:08:46;;;;;;;18.73;6.82;;;6.70;99.90;;;;;;5032835;28;20040;-76
2022/02/17 10:11:29;;;;;;;14.35;6.20;;;6.70;99.90;;;;;;4994968;28;20041;-76
2022/02/17 10:14:04;;;;;;;15.50;6.93;;;6.80;99.90;;;;;;5036588;28;20042;-76
2022/02/17 10:16:58;;;;;;;12.48;7.32;;;6.90;99.90;;;;;;5036575;28;20071;-75
2022/02/17 10:19:28;;;;;;;14.77;9.43;;;7.00;99.90;;;;;;5033862;28;20045;-78
2022/02/17 10:22:10;;;;;;;13.65;8.13;;;7.00;99.90;;;;;;5029539;28;20052;-77
2022/02/17 10:24:46;;;;;;;11.80;10.60;;;7.10;99.90;;;;;;5023785;28;20617;-75
2022/02/17 10:27:28;;;;;;;11.63;10.38;;;7.20;99.90;;;;;;5014097;28;20056;-77
2022/02/17 10:30:10;;;;;;;10.80;9.77;;;7.30;99.90;;;;;;5029578;28;20052;-75
2022/02/17 10:32:56;;;;;;;16.75;10.80;;;7.30;99.90;;;;;;5017686;28;20056;-78
2022/02/17 10:35:25;;;;;;;15.10;8.98;;;7.40;99.90;;;;;;5016624;28;20088;-79
2022/02/17 10:37:58;;;;;;;21.50;13.32;;;7.30;99.90;;;;;;5014695;28;20041;-76
2022/02/17 10:40:30;;;;;;;10.93;10.05;;;7.20;99.90;;;;;;5027169;28;20061;-76
2022/02/17 10:42:57;;;;;;;11.77;8.82;;;7.30;99.90;;;;;;5031159;28;20088;-74
2022/02/17 10:45:35;;;;;;;11.02;8.88;;;7.20;99.90;;;;;;5036252;28;20509;-75
2022/02/17 10:48:18;;;;;;;9.52;8.70;;;7.20;99.90;;;;;;5019641;28;20218;-80
2022/02/17 10:51:03;;;;;;;12.63;8.75;;;7.10;99.90;;;;;;5031480;28;20050;-75
2022/02/17 10:53:31;;;;;;;13.43;10.73;;;7.10;99.90;;;;;;5036100;28;20049;-78
2022/02/17 10:56:00;;;;;;;11.68;10.48;;;7.10;99.90;;;;;;5033809;28;20056;-76
2022/02/17 10:58:32;;;;;;;17.88;12.35;;;7.30;99.90;;;;;;4997896;28;20497;-76
2022/02/17 11:01:03;;;;;;;12.98;11.63;;;7.30;99.90;;;;;;5014082;28;20048;-76
2022/02/17 11:03:32;;;;;;;13.23;11.98;;;7.50;99.90;;;;;;5015766;28;20064;-74
2022/02/17 11:06:09;;;;;;;12.75;11.07;;;7.60;99.90;;;;;;5002151;28;20531;-74
2022/02/17 11:08:39;;;;;;;12.30;10.70;;;7.60;99.90;;;;;;5016700;28;20033;-77
2022/02/17 11:11:07;;;;;;;11.73;10.85;;;7.40;99.90;;;;;;5027426;28;20037;-74
2022/02/17 11:13:34;;;;;;;13.65;12.63;;;7.20;99.90;;;;;;5032393;28;20060;-74
2022/02/17 11:16:10;;;;;;;16.23;14.65;;;7.20;99.90;;;;;;5017314;28;20411;-73
2022/02/17 11:18:40;;;;;;;16.55;15.07;;;7.40;99.90;;;;;;5015624;28;20060;-73
2022/02/17 11:21:07;;;;;;;13.95;12.68;;;7.80;99.90;;;;;;5003259;28;20562;-73
2022/02/17 11:23:36;;;;;;;15.98;14.75;;;8.20;99.90;;;;;;5013644;28;20659;-76
2022/02/17 11:26:19;;;;;;;15.63;14.00;;;8.30;99.90;;;;;;5017259;28;20646;-75
2022/02/17 11:28:46;;;;;;;15.73;14.23;;;7.90;99.90;;;;;;5032676;28;20513;-74
2022/02/17 11:31:12;;;;;;;16.08;14.88;;;7.90;99.90;;;;;;5015065;28;20359;-73
2022/02/17 11:33:41;;;;;;;15.18;13.88;;;7.90;99.90;;;;;;5014669;28;20060;-73
2022/02/17 11:36:22;;;;;;;16.13;14.65;;;8.20;99.90;;;;;;5014348;28;20044;-75
2022/02/17 11:38:50;;;;;;;15.70;14.70;;;8.40;99.90;;;;;;5009079;28;20493;-77
2022/02/17 11:41:19;;;;;;;15.45;14.27;;;8.50;99.90;;;;;;5012744;28;20235;-74
2022/02/17 11:43:47;;;;;;;17.20;15.27;;;8.50;99.90;;;;;;5017033;28;20049;-75
2022/02/17 11:46:16;;;;;;;15.25;13.82;;;8.40;99.90;;;;;;4991875;28;20049;-77
2022/02/17 11:48:45;;;;;;;16.17;15.15;;;8.40;99.90;;;;;;5008948;28;20898;-74
2022/02/17 11:51:19;;;;;;;15.13;14.02;;;8.50;99.90;;;;;;5011251;28;20486;-74
2022/02/17 11:53:51;;;;;;;13.25;12.15;;;8.50;99.90;;;;;;5012816;28;20136;-74
2022/02/17 11:56:21;;;;;;;16.13;14.68;;;8.40;99.90;;;;;;5012387;28;20049;-77
2022/02/17 11:58:50;;;;;;;15.77;14.02;;;8.20;99.90;;;;;;4978872;28;20057;-76
2022/02/17 12:01:26;;;;;;;14.18;13.27;;;8.40;99.90;;;;;;5005626;28;20072;-74
2022/02/17 12:04:17;;;;;;;16.35;13.00;;;8.20;99.90;;;;;;5012073;28;20046;-74
2022/02/17 12:07:34;;;;;;;13.45;12.32;;;8.40;99.90;;;;;;5012002;28;20095;-74
2022/02/17 12:10:31;;;;;;;14.23;13.15;;;8.20;99.90;;;;;;5030006;28;20033;-75
2022/02/17 12:13:02;;;;;;;14.00;13.10;;;8.40;99.90;;;;;;5033566;28;20064;-75
2022/02/17 12:15:29;;;;;;;13.57;12.27;;;8.40;99.90;;;;;;5051480;28;20036;-76
2022/02/17 12:17:57;;;;;;;14.43;13.45;;;8.20;99.90;;;;;;5037973;28;20041;-75
2022/02/17 12:20:28;;;;;;;14.07;13.02;;;8.20;99.90;;;;;;5031778;28;20049;-76
2022/02/17 12:23:08;;;;;;;14.77;13.52;;;8.20;99.90;;;;;;4997937;28;20224;-75
2022/02/17 12:25:45;;;;;;;14.70;13.43;;;8.20;99.90;;;;;;4992633;28;20041;-76
2022/02/17 12:28:16;;;;;;;13.30;12.30;;;8.10;99.90;;;;;;5016406;28;20037;-77
2022/02/17 12:30:49;;;;;;;13.48;12.43;;;8.30;99.90;;;;;;5012915;28;20076;-75
2022/02/17 12:33:23;;;;;;;14.77;13.57;;;8.60;99.90;;;;;;5012416;28;20461;-77
2022/02/17 12:35:57;;;;;;;12.63;12.00;;;8.80;99.90;;;;;;5013245;28;20244;-77
2022/02/17 12:38:26;;;;;;;;;;;8.60;99.90;;;;;;5001929;28;20523;-76
2022/02/17 12:40:53;;;;;;;12.50;11.60;;;8.70;99.90;;;;;;5009719;28;19924;-77
2022/02/17 12:43:38;;;;;;;13.80;12.60;;;9.10;99.90;;;;;;5029924;28;20052;-77
2022/02/17 12:46:09;;;;;;;12.82;11.40;;;9.10;99.90;;;;;;4993274;28;20041;-77
2022/02/17 12:48:39;;;;;;;12.80;11.77;;;9.00;99.90;;;;;;5027656;28;20052;-75
2022/02/17 12:51:29;;;;;;;12.38;11.57;;;8.90;99.90;;;;;;5032570;28;20048;-78
2022/02/17 12:54:06;;;;;;;11.48;10.77;;;8.50;99.90;;;;;;5002232;28;20056;-79
2022/02/17 12:56:35;;;;;;;19.55;14.10;;;8.30;99.90;;;;;;4996129;28;20049;-77
2022/02/17 12:59:12;;;;;;;13.57;12.48;;;8.50;99.90;;;;;;5013599;28;20045;-77
2022/02/17 13:01:47;;;;;;;13.27;12.27;;;8.70;99.90;;;;;;4998259;28;20051;-77
2022/02/17 13:04:17;;;;;;;14.45;13.30;;;8.90;99.90;;;;;;5004211;28;20630;-75
2022/02/17 13:06:44;;;;;;;15.07;12.15;;;9.20;99.90;;;;;;4994552;28;20076;-75
2022/02/17 13:09:28;;;;;;;13.73;12.52;;;9.30;99.90;;;;;;5025070;28;20037;-75